»·PEaware :: N882KB O22-KPSP

N882KB :: O22-KPSP

FLIGHT INFORMATION

Flight Status: Arrived
Operator: Privately registered:
United States
More flights under this callsign
Pilot: Anonymous 3076 (3076)
Aircraft: CESSNA 750 CITATION 10
(C750)
More flights by this aircraft type
Origin: O22 Columbia
United States
Destination: KPSP Palm Springs Intl
United States
More flights between these airports :: More routes between these airports
Route: HABXU OYVEY SIZLR3
File this flight plan on PilotEdge
Remarks:
Altitude:
(Current/Filed)
33,000ft
Speed:
(Current/Filed)
495kts
Departed: 13-Mar-19 05:00 PM
Arrived: 13-Mar-19 05:50 PM
Distance/Time
Traveled:
316nm/0:50
Distance/Time
To Go:
Arrived

Flight Plot

Page will automatically refresh every two minutes.

Flight plan parsing failed; only flown route is shown


Map Options




Map Legend


Flown Route
Filed Route
Departure Airport
Arrival Airport
Navaid (VOR, NDB)
Fix

Horizontal Profiles

Position Reports

Time Latitude Longitude Heading Altitude Ground
Speed
13-Mar-19 16:46 38.030515 -120.412223 190 2084ft 0kts
13-Mar-19 16:47 38.030515 -120.412223 190 2084ft 0kts
13-Mar-19 16:48 38.030515 -120.412223 190 2084ft 0kts
13-Mar-19 16:49 38.030515 -120.412223 190 2084ft 0kts
13-Mar-19 16:50 38.030515 -120.412223 190 2084ft 0kts
13-Mar-19 16:51 38.030514 -120.412224 190 2084ft 0kts
13-Mar-19 16:52 38.030514 -120.412224 190 2084ft 0kts
13-Mar-19 16:53 38.030514 -120.412224 190 2084ft 0kts
13-Mar-19 16:54 38.030514 -120.412224 190 2084ft 0kts
13-Mar-19 16:55 38.031404 -120.412349 10 2084ft 6kts
13-Mar-19 16:56 38.033545 -120.411845 10 2084ft 13kts
13-Mar-19 16:57 38.036413 -120.411348 7 2084ft 3kts
13-Mar-19 16:58 38.036506 -120.411762 188 2084ft 0kts
13-Mar-19 16:59 38.012847 -120.417409 189 3087ft 154kts
13-Mar-19 17:00 37.963021 -120.422470 167 6542ft 210kts
13-Mar-19 17:01 37.902501 -120.397641 147 9187ft 257kts
13-Mar-19 17:02 37.832726 -120.346807 153 11168ft 318kts
13-Mar-19 17:03 37.752614 -120.288057 155 13452ft 347kts
13-Mar-19 17:04 37.666327 -120.228759 160 15764ft 360kts
13-Mar-19 17:05 37.576774 -120.163001 157 18190ft 379kts
13-Mar-19 17:06 37.484861 -120.094913 158 20507ft 392kts
13-Mar-19 17:07 37.389649 -120.027372 159 22777ft 406kts
13-Mar-19 17:08 37.287565 -119.954557 160 25404ft 419kts
13-Mar-19 17:09 37.183611 -119.880267 163 28625ft 442kts
13-Mar-19 17:10 37.073664 -119.802038 165 31121ft 465kts
13-Mar-19 17:11 36.958693 -119.720850 167 32928ft 488kts
13-Mar-19 17:12 36.834694 -119.634048 166 33163ft 534kts
13-Mar-19 17:13 36.703505 -119.541832 165 33165ft 542kts
13-Mar-19 17:14 36.571463 -119.449518 165 33168ft 546kts
13-Mar-19 17:15 36.438630 -119.357352 165 33170ft 548kts
13-Mar-19 17:16 36.305381 -119.265305 165 33171ft 548kts
13-Mar-19 17:17 36.171818 -119.173324 165 33179ft 549kts
13-Mar-19 17:19 36.038029 -119.081677 165 33189ft 548kts
13-Mar-19 17:20 35.904888 -118.990680 165 33189ft 545kts
13-Mar-19 17:21 35.771260 -118.908502 179 33189ft 509kts
13-Mar-19 17:22 35.642390 -118.889036 189 33176ft 484kts
13-Mar-19 17:23 35.513803 -118.866846 184 33172ft 497kts
13-Mar-19 17:24 35.377214 -118.828453 168 33165ft 532kts
13-Mar-19 17:25 35.251518 -118.719061 154 33161ft 561kts
13-Mar-19 17:26 35.124776 -118.611434 160 33160ft 551kts
13-Mar-19 17:27 34.996213 -118.509015 158 33157ft 554kts
13-Mar-19 17:28 34.869731 -118.404973 158 32016ft 523kts
13-Mar-19 17:29 34.755726 -118.303804 142 28980ft 518kts
13-Mar-19 17:30 34.672454 -118.165990 131 26167ft 485kts
13-Mar-19 17:31 34.591713 -118.040133 134 23818ft 468kts
13-Mar-19 17:32 34.528458 -117.904069 116 23124ft 469kts
13-Mar-19 17:33 34.473552 -117.760440 120 23145ft 470kts
13-Mar-19 17:34 34.414741 -117.619488 120 23148ft 454kts
13-Mar-19 17:35 34.360375 -117.487043 120 20778ft 427kts
13-Mar-19 17:35 34.317061 -117.381588 120 18812ft 417kts
13-Mar-19 17:37 34.253237 -117.238746 123 16036ft 409kts
13-Mar-19 17:38 34.194899 -117.116025 122 16016ft 422kts
13-Mar-19 17:38 34.146625 -117.012920 122 16021ft 423kts
13-Mar-19 17:40 34.081227 -116.873330 123 16019ft 384kts
13-Mar-19 17:41 34.031281 -116.766346 118 13985ft 344kts
13-Mar-19 17:41 34.006878 -116.675469 111 13325ft 356kts
13-Mar-19 17:42 33.965592 -116.575310 121 11095ft 321kts
13-Mar-19 17:44 33.919346 -116.476014 121 8717ft 251kts
13-Mar-19 17:44 33.885982 -116.425917 147 7452ft 221kts
13-Mar-19 17:45 33.834331 -116.389164 155 5740ft 212kts
13-Mar-19 17:46 33.788818 -116.413515 251 3446ft 185kts
13-Mar-19 17:47 33.788450 -116.468828 294 1695ft 150kts
13-Mar-19 17:48 33.818677 -116.497907 323 546ft 134kts
13-Mar-19 17:49 33.833228 -116.511538 244 481ft 9kts
13-Mar-19 17:50 33.832464 -116.511947 185 481ft 6kts
13-Mar-19 17:51 33.830149 -116.510237 143 481ft 8kts
13-Mar-19 17:52 33.827005 -116.507340 144 481ft 19kts
13-Mar-19 17:53 33.825350 -116.508226 274 481ft 10kts
13-Mar-19 17:54 33.825426 -116.509371 275 481ft 0kts
13-Mar-19 17:55 33.825426 -116.509371 275 481ft 0kts

Navigation Log

Ident Type
Flight plan parsing failed, navigation log unavailable